Time;durP1;ratioP1;P1;durP2;ratioP2;P2;SDS_P1;SDS_P2;PMS_P1;PMS_P2;Temp;Humidity;BMP_temperature;BMP_pressure;BME280_temperature;BME280_humidity;BME280_pressure;Samples;Min_cycle;Max_cycle;Signal;HPM_P1;HPM_P2
2022/11/27 00:01:13;;;;;;;;;;;5.10;99.90;;;;;;12584641;28;20372;-84
2022/11/27 00:07:15;;;;;;;;;;;5.10;99.90;;;;;;12571286;28;19925;-84
2022/11/27 00:13:17;;;;;;;;;;;5.00;99.90;;;;;;12571887;28;19925;-84
2022/11/27 00:19:19;;;;;;;;;;;5.00;99.90;;;;;;12572912;28;20042;-83
2022/11/27 00:25:21;;;;;;;;;;;5.00;99.90;;;;;;12570210;28;20299;-85
2022/11/27 00:31:26;;;;;;;;;;;5.00;99.90;;;;;;12580352;28;19935;-84
2022/11/27 00:37:27;;;;;;;;;;;5.00;99.90;;;;;;12579850;28;19924;-85
2022/11/27 00:43:29;;;;;;;;;;;4.90;99.90;;;;;;12589596;28;19929;-84
2022/11/27 00:49:31;;;;;;;;;;;4.90;99.90;;;;;;12587304;28;19924;-84
2022/11/27 00:55:33;;;;;;;;;;;4.90;99.90;;;;;;12579648;28;20372;-83
2022/11/27 01:01:37;;;;;;;;;;;4.90;99.90;;;;;;12587978;28;19931;-84
2022/11/27 01:07:38;;;;;;;;;;;4.80;99.90;;;;;;12579372;28;19924;-84
2022/11/27 01:13:40;;;;;;;;;;;4.80;99.90;;;;;;12571966;28;19931;-84
2022/11/27 01:19:42;;;;;;;;;;;4.80;99.90;;;;;;12589970;28;19925;-85
2022/11/27 01:25:44;;;;;;;;;;;4.80;99.90;;;;;;12588034;28;19936;-84
2022/11/27 01:31:45;;;;;;;;;;;4.80;99.90;;;;;;12593362;28;19932;-84
2022/11/27 01:37:47;;;;;;;;;;;4.80;99.90;;;;;;12599225;28;20015;-84
2022/11/27 01:43:51;;;;;;;;;;;4.80;99.90;;;;;;12571233;28;19935;-84
2022/11/27 01:49:55;;;;;;;;;;;4.80;99.90;;;;;;12589973;28;19925;-84
2022/11/27 01:55:59;;;;;;;;;;;4.70;99.90;;;;;;12590639;28;19928;-84
2022/11/27 02:02:01;;;;;;;;;;;4.70;99.90;;;;;;12581266;28;19924;-84
2022/11/27 02:08:05;;;;;;;;;;;4.60;99.90;;;;;;12589621;28;19924;-84
2022/11/27 02:14:25;;;;;;;;;;;4.50;99.90;;;;;;12594582;28;19950;-84
2022/11/27 02:20:47;;;;;;;;;;;4.50;99.90;;;;;;12594725;28;19924;-84
2022/11/27 02:26:48;;;;;;;;;;;4.40;99.90;;;;;;12576066;28;20380;-84
2022/11/27 02:32:56;;;;;;;;;;;4.40;99.90;;;;;;12586020;28;19925;-84
2022/11/27 02:39:03;;;;;;;;;;;4.30;99.90;;;;;;12576776;28;19925;-85
2022/11/27 02:45:25;;;;;;;;;;;4.40;99.90;;;;;;12559640;28;19931;-84
2022/11/27 02:51:36;;;;;;;;;;;4.40;99.90;;;;;;12576508;28;20411;-84
2022/11/27 02:57:38;;;;;;;;;;;4.40;99.90;;;;;;12574519;28;20426;-84
2022/11/27 03:03:45;;;;;;;;;;;4.40;99.90;;;;;;12577683;28;19924;-84
2022/11/27 03:09:48;;;;;;;;;;;4.40;99.90;;;;;;12588431;28;20403;-84
2022/11/27 03:15:58;;;;;;;;;;;4.30;99.90;;;;;;12580458;28;20003;-84
2022/11/27 03:22:00;;;;;;;;;;;4.40;99.90;;;;;;12575041;28;19925;-84
2022/11/27 03:28:03;;;;;;;;;;;4.40;99.90;;;;;;12559412;28;20350;-83
2022/11/27 03:34:05;;;;;;;;;;;4.30;99.90;;;;;;12563070;28;19932;-83
2022/11/27 03:40:08;;;;;;;;;;;4.30;99.90;;;;;;12559651;28;20303;-84
2022/11/27 03:46:14;;;;;;;;;;;4.40;99.90;;;;;;12578915;28;19931;-84
2022/11/27 03:52:34;;;;;;;;;;;4.40;99.90;;;;;;12569014;28;19924;-84
2022/11/27 03:58:44;;;;;;;;;;;4.40;99.90;;;;;;12584734;28;19932;-84
2022/11/27 04:04:46;;;;;;;;;;;4.40;99.90;;;;;;12577332;28;20397;-83
2022/11/27 04:10:48;;;;;;;;;;;4.40;99.90;;;;;;12590734;28;19932;-84
2022/11/27 04:16:49;;;;;;;;;;;4.40;99.90;;;;;;12582400;28;20427;-84
2022/11/27 04:22:51;;;;;;;;;;;4.50;99.90;;;;;;12576649;28;20396;-84
2022/11/27 04:28:53;;;;;;;;;;;4.40;99.90;;;;;;12595004;28;20364;-84
2022/11/27 04:34:54;;;;;;;;;;;4.40;99.90;;;;;;12585326;28;19935;-84
2022/11/27 04:40:56;;;;;;;;;;;4.40;99.90;;;;;;12579711;28;19928;-84
2022/11/27 04:46:58;;;;;;;;;;;4.30;99.90;;;;;;12585569;28;19939;-84
2022/11/27 04:53:00;;;;;;;;;;;4.30;99.90;;;;;;12591662;28;19929;-83
2022/11/27 04:59:02;;;;;;;;;;;4.40;99.90;;;;;;12565638;28;19931;-83
2022/11/27 05:05:04;;;;;;;;;;;4.50;99.90;;;;;;12587246;28;19924;-83
2022/11/27 05:11:07;;;;;;;;;;;4.40;99.90;;;;;;12596144;28;19924;-84
2022/11/27 05:17:09;;;;;;;;;;;4.40;99.90;;;;;;12571572;28;19932;-83
2022/11/27 05:23:10;;;;;;;;;;;4.40;99.90;;;;;;12577506;28;19932;-83
2022/11/27 05:29:13;;;;;;;;;;;4.40;99.90;;;;;;12561870;28;19928;-83
2022/11/27 05:35:15;;;;;;;;;;;4.50;99.90;;;;;;12555165;28;20399;-83
2022/11/27 05:41:17;;;;;;;;;;;4.40;99.90;;;;;;12574361;28;19924;-83
2022/11/27 05:47:18;;;;;;;;;;;4.40;99.90;;;;;;12572076;28;19929;-84
2022/11/27 05:53:20;;;;;;;;;;;4.40;99.90;;;;;;12582653;28;20268;-83
2022/11/27 05:59:22;;;;;;;;;;;4.40;99.90;;;;;;12580035;28;20293;-84
2022/11/27 06:05:23;;;;;;;;;;;4.40;99.90;;;;;;12593882;28;20387;-84
2022/11/27 06:11:25;;;;;;;;;;;4.40;99.90;;;;;;12597202;28;19942;-83
2022/11/27 06:17:27;;;;;;;;;;;4.30;99.90;;;;;;12577664;28;20376;-84
2022/11/27 06:23:28;;;;;;;;;;;4.30;99.90;;;;;;12575763;28;20023;-83
2022/11/27 06:29:30;;;;;;;;;;;4.30;99.90;;;;;;12565822;28;20003;-83
2022/11/27 06:35:32;;;;;;;;;;;4.30;99.90;;;;;;12574476;28;19924;-83
2022/11/27 06:41:33;;;;;;;;;;;4.30;99.90;;;;;;12569314;28;19924;-83
2022/11/27 06:47:35;;;;;;;;;;;4.30;99.90;;;;;;12588826;28;19924;-83
2022/11/27 06:53:37;;;;;;;;;;;4.30;99.90;;;;;;12574047;28;20292;-84
2022/11/27 06:59:39;;;;;;;;;;;4.30;99.90;;;;;;12575375;28;20372;-84
2022/11/27 07:05:40;;;;;;;;;;;4.30;99.90;;;;;;12584634;28;19925;-85
2022/11/27 07:11:42;;;;;;;;;;;4.40;99.90;;;;;;12585695;28;19924;-85
2022/11/27 07:17:44;;;;;;;;;;;4.40;99.90;;;;;;12574173;28;20369;-84
2022/11/27 07:23:46;;;;;;;;;;;4.40;99.90;;;;;;12564660;28;20284;-84
2022/11/27 07:29:47;;;;;;;;;;;4.40;99.90;;;;;;12576180;28;19929;-84
2022/11/27 07:35:50;;;;;;;;;;;4.40;99.90;;;;;;12554340;28;19928;-86
2022/11/27 07:41:51;;;;;;;;;;;4.50;99.90;;;;;;12574323;28;19928;-84
2022/11/27 07:47:53;;;;;;;;;;;4.50;99.90;;;;;;12555828;28;19924;-85
2022/11/27 07:53:55;;;;;;;;;;;4.50;99.90;;;;;;12573633;28;19925;-84
2022/11/27 07:59:56;;;;;;;;;;;4.60;99.90;;;;;;12578996;28;19928;-84
2022/11/27 08:05:58;;;;;;;;;;;4.60;99.90;;;;;;12597342;28;20030;-84
2022/11/27 08:12:00;;;;;;;;;;;4.60;99.90;;;;;;12597259;28;21417;-84
2022/11/27 08:18:02;;;;;;;;;;;4.70;99.90;;;;;;12573668;28;19929;-84
2022/11/27 08:24:04;;;;;;;;;;;4.70;99.90;;;;;;12601718;28;19925;-84
2022/11/27 08:30:06;;;;;;;;;;;4.70;99.90;;;;;;12586058;28;20491;-84
2022/11/27 08:36:08;;;;;;;;;;;4.80;99.90;;;;;;12593958;28;19931;-85
2022/11/27 08:42:18;;;;;;;;;;;4.80;99.90;;;;;;12596031;28;19928;-84
2022/11/27 08:48:20;;;;;;;;;;;4.90;99.90;;;;;;12583417;28;19968;-84
2022/11/27 08:54:21;;;;;;;;;;;5.10;99.90;;;;;;12598858;28;20471;-84
2022/11/27 09:00:23;;;;;;;;;;;5.20;99.90;;;;;;12596919;28;19924;-84
2022/11/27 09:06:33;;;;;;;;;;;5.20;99.90;;;;;;12589647;28;21477;-84
2022/11/27 09:12:35;;;;;;;;;;;5.30;99.90;;;;;;12588108;28;19968;-84
2022/11/27 09:18:44;;;;;;;;;;;5.50;99.90;;;;;;12570689;28;19924;-84
2022/11/27 09:24:46;;;;;;;;;;;5.80;99.90;;;;;;12558248;28;19925;-84
2022/11/27 09:30:48;;;;;;;;;;;5.80;99.90;;;;;;12566901;28;19932;-84
2022/11/27 09:36:49;;;;;;;;;;;5.90;99.90;;;;;;12573853;28;19925;-84
2022/11/27 09:42:56;;;;;;;;;;;5.90;99.90;;;;;;12579528;28;19925;-84
2022/11/27 09:49:00;;;;;;;;;;;6.00;99.90;;;;;;12582761;28;19928;-84
2022/11/27 09:55:14;;;;;;;;;;;6.10;99.90;;;;;;12579913;28;19928;-84
2022/11/27 10:01:17;;;;;;;;;;;6.20;99.90;;;;;;12581482;28;19924;-84
2022/11/27 10:07:38;;;;;;;;;;;6.30;99.90;;;;;;12557614;28;19999;-84
2022/11/27 10:13:46;;;;;;;;;;;6.40;99.90;;;;;;12577542;28;19929;-84
2022/11/27 10:19:52;;;;;;;;;;;6.50;99.90;;;;;;12567418;28;19929;-84
2022/11/27 10:25:58;;;;;;;;;;;6.60;99.90;;;;;;12565750;28;19928;-84
2022/11/27 10:32:05;;;;;;;;;;;6.70;99.90;;;;;;12570884;28;19929;-85
2022/11/27 10:38:13;;;;;;;;;;;6.80;99.90;;;;;;12571500;28;19952;-85
2022/11/27 10:44:30;;;;;;;;;;;6.90;99.90;;;;;;12577728;28;19924;-85
2022/11/27 10:50:32;;;;;;;;;;;6.90;99.90;;;;;;12578863;28;19929;-84
2022/11/27 10:56:54;;;;;;;;;;;7.00;99.90;;;;;;12588313;28;19924;-84
2022/11/27 11:03:06;;;;;;;;;;;7.10;99.90;;;;;;12560397;28;19925;-84
2022/11/27 11:09:22;;;;;;;;;;;7.20;99.90;;;;;;12573972;28;19928;-85
2022/11/27 11:15:23;;;;;;;;;;;7.30;99.90;;;;;;12561989;28;19928;-84
2022/11/27 11:21:25;;;;;;;;;;;7.40;99.90;;;;;;12558490;28;19936;-85
2022/11/27 11:27:28;;;;;;;;;;;7.60;99.90;;;;;;12579234;28;19935;-85
2022/11/27 11:33:36;;;;;;;;;;;7.70;99.90;;;;;;12578195;28;19928;-84
2022/11/27 11:39:52;;;;;;;;;;;7.80;99.90;;;;;;12572008;28;19932;-84
2022/11/27 11:46:02;;;;;;;;;;;7.90;99.90;;;;;;12545064;28;20269;-84
2022/11/27 11:52:04;;;;;;;;;;;7.80;99.90;;;;;;12566442;28;19924;-84
2022/11/27 11:58:19;;;;;;;;;;;7.80;99.90;;;;;;12557472;28;19925;-85
2022/11/27 12:04:24;;;;;;;;;;;7.70;99.90;;;;;;12561654;28;20027;-84
2022/11/27 12:10:41;;;;;;;;;;;7.70;99.90;;;;;;12556666;28;19925;-85
2022/11/27 12:16:49;;;;;;;;;;;7.80;99.90;;;;;;12558670;28;19941;-85
2022/11/27 12:23:27;;;;;;;;;;;7.90;99.90;;;;;;12567825;28;19928;-85
2022/11/27 12:29:45;;;;;;;;;;;7.90;99.90;;;;;;12474140;28;19935;-85
2022/11/27 12:35:50;;;;;;;;;;;7.90;99.90;;;;;;12562117;28;19929;-85
2022/11/27 12:41:59;;;;;;;;;;;7.90;99.90;;;;;;12556903;28;19932;-85
2022/11/27 12:48:18;;;;;;;;;;;8.00;99.90;;;;;;12586302;28;19971;-84
2022/11/27 12:54:31;;;;;;;;;;;8.00;99.90;;;;;;12594157;28;19933;-85
2022/11/27 13:00:35;;;;;;;;;;;8.00;99.90;;;;;;12565272;28;19924;-85
2022/11/27 13:07:09;;;;;;;;;;;8.10;99.90;;;;;;12578719;28;19955;-84
2022/11/27 13:13:30;;;;;;;;;;;8.00;99.90;;;;;;12553416;28;20081;-85
2022/11/27 13:19:35;;;;;;;;;;;8.00;99.90;;;;;;12583744;28;20002;-84
2022/11/27 13:25:43;;;;;;;;;;;8.10;99.90;;;;;;12558397;28;19924;-84
2022/11/27 13:31:47;;;;;;;;;;;8.10;99.90;;;;;;12569149;28;19973;-84
2022/11/27 13:37:55;;;;;;;;;;;8.20;99.90;;;;;;12566402;28;19924;-85
2022/11/27 13:43:57;;;;;;;;;;;8.10;99.90;;;;;;12571231;28;19940;-84
2022/11/27 13:50:03;;;;;;;;;;;8.20;99.90;;;;;;12569954;28;19925;-85
2022/11/27 13:56:05;;;;;;;;;;;8.10;99.90;;;;;;12569382;28;19925;-84
2022/11/27 14:02:07;;;;;;;;;;;8.20;99.90;;;;;;12585833;28;19940;-85
2022/11/27 14:08:20;;;;;;;;;;;8.20;99.90;;;;;;12576694;28;19925;-84
2022/11/27 14:14:23;;;;;;;;;;;8.20;99.90;;;;;;12594750;28;19924;-84
2022/11/27 14:20:27;;;;;;;;;;;8.20;99.90;;;;;;12548092;28;19925;-85
2022/11/27 14:26:30;;;;;;;;;;;8.10;99.90;;;;;;12573941;28;19990;-84
2022/11/27 14:32:34;;;;;;;;;;;8.10;99.90;;;;;;12564910;28;19939;-86
2022/11/27 14:38:35;;;;;;;;;;;8.10;99.90;;;;;;12575928;28;19928;-84
2022/11/27 14:44:37;;;;;;;;;;;8.00;99.90;;;;;;12582375;28;19928;-85
2022/11/27 14:50:39;;;;;;;;;;;8.10;99.90;;;;;;12568652;28;19932;-84
2022/11/27 14:56:42;;;;;;;;;;;7.90;99.90;;;;;;12568930;28;19924;-86
2022/11/27 15:02:44;;;;;;;;;;;8.00;99.90;;;;;;12588171;28;19948;-86
2022/11/27 15:08:46;;;;;;;;;;;7.90;99.90;;;;;;12582126;28;19924;-85
2022/11/27 15:15:18;;;;;;;;;;;7.90;99.90;;;;;;12600781;28;19928;-85
2022/11/27 15:21:23;;;;;;;;;;;7.90;99.90;;;;;;12583837;28;20364;-86
2022/11/27 15:27:25;;;;;;;;;;;7.90;99.90;;;;;;12565685;28;19925;-84
2022/11/27 15:33:28;;;;;;;;;;;8.00;99.90;;;;;;12570126;28;19928;-84
2022/11/27 15:39:50;;;;;;;;;;;7.80;99.90;;;;;;12565988;28;20452;-84
2022/11/27 15:45:52;;;;;;;;;;;7.80;99.90;;;;;;12554829;28;19928;-85
2022/11/27 15:51:54;;;;;;;;;;;7.80;99.90;;;;;;12570040;28;19928;-84
2022/11/27 15:57:56;;;;;;;;;;;7.80;99.90;;;;;;12569481;28;19925;-84
2022/11/27 16:03:58;;;;;;;;;;;7.80;99.90;;;;;;12560760;28;19933;-84
2022/11/27 16:09:59;;;;;;;;;;;7.80;99.90;;;;;;12557496;28;19925;-84
2022/11/27 16:16:02;;;;;;;;;;;7.80;99.90;;;;;;12550366;28;20389;-84
2022/11/27 16:22:04;;;;;;;;;;;7.90;99.90;;;;;;12591399;28;19939;-84
2022/11/27 16:28:05;;;;;;;;;;;7.80;99.90;;;;;;12574171;28;20266;-84
2022/11/27 16:34:10;;;;;;;;;;;7.80;99.90;;;;;;12575555;28;19924;-84
2022/11/27 16:40:12;;;;;;;;;;;7.80;99.90;;;;;;12588506;28;20330;-84
2022/11/27 16:46:15;;;;;;;;;;;7.80;99.90;;;;;;12594401;28;19924;-85
2022/11/27 16:52:17;;;;;;;;;;;7.80;99.90;;;;;;12581640;28;19924;-85
2022/11/27 16:58:19;;;;;;;;;;;7.80;99.90;;;;;;12570084;28;19933;-84
2022/11/27 17:04:20;;;;;;;;;;;7.80;99.90;;;;;;12570544;28;19931;-85
2022/11/27 17:10:22;;;;;;;;;;;7.80;99.90;;;;;;12563498;28;19932;-85
2022/11/27 17:16:24;;;;;;;;;;;7.80;99.90;;;;;;12583937;28;19939;-85
2022/11/27 17:22:27;;;;;;;;;;;7.70;99.90;;;;;;12565580;28;19925;-84
2022/11/27 17:28:29;;;;;;;;;;;7.70;99.90;;;;;;12579642;28;19935;-85
2022/11/27 17:34:31;;;;;;;;;;;7.70;99.90;;;;;;12579756;28;19925;-84
2022/11/27 17:40:32;;;;;;;;;;;7.70;99.90;;;;;;12564758;28;19931;-85
2022/11/27 17:46:35;;;;;;;;;;;7.60;99.90;;;;;;12579299;28;20001;-85
2022/11/27 17:52:37;;;;;;;;;;;7.60;99.90;;;;;;12580835;28;20419;-85
2022/11/27 17:58:39;;;;;;;;;;;7.60;99.90;;;;;;12568702;28;19952;-84
2022/11/27 18:04:40;;;;;;;;;;;7.60;99.90;;;;;;12596556;28;20403;-84
2022/11/27 18:10:42;;;;;;;;;;;7.60;99.90;;;;;;12577135;28;19929;-84
2022/11/27 18:16:44;;;;;;;;;;;7.60;99.90;;;;;;12574404;28;19936;-85
2022/11/27 18:22:46;;;;;;;;;;;7.60;99.90;;;;;;12579043;28;20381;-85
2022/11/27 18:28:48;;;;;;;;;;;7.60;99.90;;;;;;12576207;28;19932;-84
2022/11/27 18:34:51;;;;;;;;;;;7.60;99.90;;;;;;12580434;28;19931;-84
2022/11/27 18:40:52;;;;;;;;;;;7.50;99.90;;;;;;12576771;28;20022;-83
2022/11/27 18:46:54;;;;;;;;;;;7.50;99.90;;;;;;12584713;28;19928;-84
2022/11/27 18:52:56;;;;;;;;;;;7.50;99.90;;;;;;12586138;28;19925;-84
2022/11/27 18:59:02;;;;;;;;;;;7.50;99.90;;;;;;12572635;28;19947;-84
2022/11/27 19:05:03;;;;;;;;;;;7.40;99.90;;;;;;12580101;28;19932;-84
2022/11/27 19:11:06;;;;;;;;;;;7.40;99.90;;;;;;12575106;28;19950;-84
2022/11/27 19:17:08;;;;;;;;;;;7.40;99.90;;;;;;12552895;28;19935;-84
2022/11/27 19:23:10;;;;;;;;;;;7.30;99.90;;;;;;12581682;28;19931;-84
2022/11/27 19:29:13;;;;;;;;;;;7.30;99.90;;;;;;12586164;28;19936;-85
2022/11/27 19:35:15;;;;;;;;;;;7.30;99.90;;;;;;12594085;28;19925;-85
2022/11/27 19:41:17;;;;;;;;;;;7.30;99.90;;;;;;12578329;28;19968;-85
2022/11/27 19:47:18;;;;;;;;;;;7.30;99.90;;;;;;12583404;28;19925;-86
2022/11/27 19:53:21;;;;;;;;;;;7.30;99.90;;;;;;12577599;28;19925;-85
2022/11/27 19:59:24;;;;;;;;;;;7.20;99.90;;;;;;12582584;28;19950;-85
2022/11/27 20:05:26;;;;;;;;;;;7.30;99.90;;;;;;12583017;28;19925;-85
2022/11/27 20:11:28;;;;;;;;;;;7.30;99.90;;;;;;12571375;28;19932;-85
2022/11/27 20:17:35;;;;;;;;;;;7.20;99.90;;;;;;12548695;28;19924;-85
2022/11/27 20:23:37;;;;;;;;;;;7.20;99.90;;;;;;12575391;28;19929;-85
2022/11/27 20:29:39;;;;;;;;;;;7.20;99.90;;;;;;12568361;28;19932;-85
2022/11/27 20:35:41;;;;;;;;;;;7.20;99.90;;;;;;12567842;28;19978;-85
2022/11/27 20:41:44;;;;;;;;;;;7.10;99.90;;;;;;12565906;28;19935;-85
2022/11/27 20:47:45;;;;;;;;;;;7.10;99.90;;;;;;12581568;28;19929;-85
2022/11/27 20:53:48;;;;;;;;;;;7.00;99.90;;;;;;12609954;28;19943;-85
2022/11/27 20:59:49;;;;;;;;;;;6.80;99.90;;;;;;12569613;28;20288;-85
2022/11/27 21:05:51;;;;;;;;;;;6.80;99.90;;;;;;12585010;28;19939;-85
2022/11/27 21:11:53;;;;;;;;;;;6.70;99.90;;;;;;12585751;28;19935;-85
2022/11/27 21:17:54;;;;;;;;;;;6.60;99.90;;;;;;12574061;28;19924;-85
2022/11/27 21:23:56;;;;;;;;;;;6.60;99.90;;;;;;12575611;28;19931;-85
2022/11/27 21:29:58;;;;;;;;;;;6.50;99.90;;;;;;12572054;28;20369;-85
2022/11/27 21:35:59;;;;;;;;;;;6.40;99.90;;;;;;12571795;28;20411;-85
2022/11/27 21:42:01;;;;;;;;;;;6.50;99.90;;;;;;12569200;28;19983;-85
2022/11/27 21:48:03;;;;;;;;;;;6.40;99.90;;;;;;12581180;28;19935;-85
2022/11/27 21:54:08;;;;;;;;;;;6.30;99.90;;;;;;12582598;28;19929;-86
2022/11/27 22:00:10;;;;;;;;;;;6.30;99.90;;;;;;12565487;28;19931;-87
2022/11/27 22:06:13;;;;;;;;;;;6.40;99.90;;;;;;12552788;28;19925;-87
2022/11/27 22:12:15;;;;;;;;;;;6.30;99.90;;;;;;12571420;28;20385;-87
2022/11/27 22:18:17;;;;;;;;;;;6.40;99.90;;;;;;12567092;28;19929;-86
2022/11/27 22:24:18;;;;;;;;;;;6.50;99.90;;;;;;12562817;28;20085;-85
2022/11/27 22:30:21;;;;;;;;;;;6.40;99.90;;;;;;12565364;28;19932;-85
2022/11/27 22:36:29;;;;;;;;;;;6.50;99.90;;;;;;12577559;28;19935;-85
2022/11/27 22:42:30;;;;;;;;;;;6.50;99.90;;;;;;12581180;28;19924;-85
2022/11/27 22:48:32;;;;;;;;;;;6.60;99.90;;;;;;12585493;28;19932;-85
2022/11/27 22:54:34;;;;;;;;;;;6.50;99.90;;;;;;12582078;28;20364;-85
2022/11/27 23:00:35;;;;;;;;;;;6.50;99.90;;;;;;12578535;28;19925;-84
2022/11/27 23:06:37;;;;;;;;;;;6.40;99.90;;;;;;12566796;28;19932;-85
2022/11/27 23:12:39;;;;;;;;;;;6.40;99.90;;;;;;12573172;28;19935;-87
2022/11/27 23:18:40;;;;;;;;;;;6.30;99.90;;;;;;12577956;28;19925;-85
2022/11/27 23:24:42;;;;;;;;;;;6.30;99.90;;;;;;12584916;28;19924;-85
2022/11/27 23:30:44;;;;;;;;;;;6.20;99.90;;;;;;12574399;28;19924;-85
2022/11/27 23:36:46;;;;;;;;;;;6.20;99.90;;;;;;12587809;28;19924;-86
2022/11/27 23:42:47;;;;;;;;;;;6.20;99.90;;;;;;12585405;28;19935;-85
2022/11/27 23:48:49;;;;;;;;;;;6.30;99.90;;;;;;12572676;28;19925;-85
2022/11/27 23:54:51;;;;;;;;;;;6.40;99.90;;;;;;12591484;28;19924;-87
